Time;durP1;ratioP1;P1;durP2;ratioP2;P2;SDS_P1;SDS_P2;PMS_P1;PMS_P2;Temp;Humidity;BMP_temperature;BMP_pressure;BME280_temperature;BME280_humidity;BME280_pressure;Samples;Min_cycle;Max_cycle;Signal;HPM_P1;HPM_P2
2022/08/27 00:02:07;;;;;;;11.77;4.63;;;;;;;;;;5050662;28;20045;-61
2022/08/27 00:04:33;;;;;;;15.93;5.13;;;;;;;;;;5050655;28;20051;-61
2022/08/27 00:06:59;;;;;;;13.60;5.07;;;;;;;;;;5049917;28;20442;-61
2022/08/27 00:09:25;;;;;;;10.23;5.87;;;;;;;;;;5045662;28;20049;-60
2022/08/27 00:11:52;;;;;;;16.37;5.70;;;;;;;;;;5050525;28;20075;-60
2022/08/27 00:14:18;;;;;;;11.93;5.10;;;;;;;;;;5051450;28;20560;-61
2022/08/27 00:16:44;;;;;;;12.90;5.43;;;;;;;;;;5050731;28;20754;-60
2022/08/27 00:19:10;;;;;;;18.03;5.60;;;;;;;;;;5051475;28;20041;-61
2022/08/27 00:21:37;;;;;;;10.33;5.20;;;;;;;;;;5049591;28;20069;-61
2022/08/27 00:24:03;;;;;;;15.73;5.83;;;;;;;;;;5051839;28;20470;-61
2022/08/27 00:26:30;;;;;;;13.37;5.53;;;;;;;;;;5050740;28;20033;-60
2022/08/27 00:28:56;;;;;;;14.83;6.60;;;;;;;;;;5050067;28;20400;-60
2022/08/27 00:31:22;;;;;;;13.13;6.03;;;;;;;;;;5051606;28;20049;-61
2022/08/27 00:33:48;;;;;;;10.70;6.23;;;;;;;;;;5049656;28;20048;-61
2022/08/27 00:36:14;;;;;;;15.93;6.40;;;;;;;;;;5051190;28;20099;-60
2022/08/27 00:38:41;;;;;;;12.63;6.70;;;;;;;;;;5036222;28;20438;-60
2022/08/27 00:41:09;;;;;;;13.73;6.83;;;;;;;;;;5040463;28;20048;-61
2022/08/27 00:43:47;;;;;;;15.20;6.87;;;;;;;;;;5051475;28;20049;-61
2022/08/27 00:46:25;;;;;;;12.73;6.50;;;;;;;;;;5049403;28;20515;-61
2022/08/27 00:48:52;;;;;;;12.63;6.50;;;;;;;;;;5048065;28;20080;-60
2022/08/27 00:51:20;;;;;;;13.60;6.30;;;;;;;;;;5050808;28;20041;-61
2022/08/27 00:53:46;;;;;;;11.17;7.00;;;;;;;;;;5049751;28;20049;-61
2022/08/27 00:56:17;;;;;;;15.67;7.33;;;;;;;;;;5050884;28;20418;-61
2022/08/27 00:58:48;;;;;;;12.43;6.70;;;;;;;;;;5049279;28;20453;-60
2022/08/27 01:01:17;;;;;;;13.93;6.60;;;;;;;;;;5050565;28;20045;-61
2022/08/27 01:03:45;;;;;;;14.00;7.00;;;;;;;;;;5048517;28;20048;-61
2022/08/27 01:06:13;;;;;;;13.03;6.50;;;;;;;;;;5049933;28;20056;-60
2022/08/27 01:08:40;;;;;;;12.77;7.50;;;;;;;;;;5050724;28;20041;-61
2022/08/27 01:11:07;;;;;;;12.93;7.83;;;;;;;;;;5049629;28;20811;-60
2022/08/27 01:13:33;;;;;;;14.90;7.37;;;;;;;;;;5039903;28;20041;-60
2022/08/27 01:16:00;;;;;;;16.43;8.60;;;;;;;;;;5050269;28;20114;-60
2022/08/27 01:18:27;;;;;;;20.53;9.13;;;;;;;;;;5049610;28;20045;-60
2022/08/27 01:21:00;;;;;;;14.53;8.10;;;;;;;;;;5050692;28;20052;-60
2022/08/27 01:23:28;;;;;;;15.15;8.98;;;;;;;;;;5049263;28;20128;-61
2022/08/27 01:25:55;;;;;;;16.20;7.87;;;;;;;;;;5050722;28;20053;-61
2022/08/27 01:28:21;;;;;;;18.50;8.47;;;;;;;;;;5049078;28;20055;-61
2022/08/27 01:30:47;;;;;;;12.37;8.20;;;;;;;;;;5049504;28;20895;-61
2022/08/27 01:33:22;;;;;;;14.43;8.57;;;;;;;;;;5049428;28;20052;-60
2022/08/27 01:35:49;;;;;;;16.23;7.70;;;;;;;;;;5048919;28;20525;-60
2022/08/27 01:38:17;;;;;;;15.43;8.60;;;;;;;;;;5048922;28;20045;-60
2022/08/27 01:40:43;;;;;;;15.13;8.20;;;;;;;;;;5049566;28;20064;-61
2022/08/27 01:43:09;;;;;;;20.97;9.00;;;;;;;;;;5050764;28;20037;-60
2022/08/27 01:45:38;;;;;;;21.13;8.30;;;;;;;;;;5050334;28;20143;-60
2022/08/27 01:48:04;;;;;;;14.80;7.87;;;;;;;;;;5050551;28;20098;-60
2022/08/27 01:50:32;;;;;;;14.37;9.30;;;;;;;;;;5050475;28;20052;-61
2022/08/27 01:53:01;;;;;;;15.80;8.27;;;;;;;;;;5050538;28;20049;-60
2022/08/27 01:55:27;;;;;;;15.50;8.13;;;;;;;;;;5049808;28;20091;-60
2022/08/27 01:57:54;;;;;;;14.33;8.33;;;;;;;;;;5050122;28;20052;-60
2022/08/27 02:00:22;;;;;;;19.83;9.20;;;;;;;;;;5046322;28;20041;-60
2022/08/27 02:02:49;;;;;;;14.40;7.40;;;;;;;;;;5048285;28;20032;-64
2022/08/27 02:05:15;;;;;;;15.00;7.30;;;;;;;;;;5049928;28;20044;-61
2022/08/27 02:07:41;;;;;;;12.07;8.33;;;;;;;;;;5048286;28;20052;-60
2022/08/27 02:10:09;;;;;;;13.77;7.77;;;;;;;;;;5048953;28;20041;-60
2022/08/27 02:12:35;;;;;;;15.77;8.57;;;;;;;;;;5047240;28;20565;-60
2022/08/27 02:15:02;;;;;;;13.70;9.20;;;;;;;;;;5046817;28;21488;-60
2022/08/27 02:17:28;;;;;;;15.17;8.80;;;;;;;;;;5048976;28;20076;-61
2022/08/27 02:19:54;;;;;;;17.73;9.80;;;;;;;;;;5048339;28;20095;-60
2022/08/27 02:22:20;;;;;;;18.70;9.97;;;;;;;;;;5047912;28;20045;-60
2022/08/27 02:24:47;;;;;;;15.13;10.07;;;;;;;;;;5047724;28;20052;-60
2022/08/27 02:27:13;;;;;;;17.80;9.90;;;;;;;;;;5048670;28;20140;-60
2022/08/27 02:29:39;;;;;;;15.63;9.53;;;;;;;;;;5047024;28;20053;-61
2022/08/27 02:32:05;;;;;;;22.27;10.93;;;;;;;;;;5047297;28;20056;-60
2022/08/27 02:34:31;;;;;;;18.50;10.40;;;;;;;;;;5047991;28;20424;-61
2022/08/27 02:36:57;;;;;;;17.30;9.60;;;;;;;;;;5043938;28;20080;-61
2022/08/27 02:39:24;;;;;;;19.47;10.00;;;;;;;;;;5035969;28;20049;-60
2022/08/27 02:41:50;;;;;;;16.13;9.90;;;;;;;;;;5047668;28;20996;-61
2022/08/27 02:44:16;;;;;;;21.03;9.80;;;;;;;;;;5047689;28;20107;-61
2022/08/27 02:46:43;;;;;;;18.93;9.73;;;;;;;;;;5043235;28;20041;-61
2022/08/27 02:49:09;;;;;;;17.33;10.43;;;;;;;;;;5048550;28;20041;-61
2022/08/27 02:51:35;;;;;;;20.77;10.30;;;;;;;;;;5048871;28;20048;-61
2022/08/27 02:54:02;;;;;;;22.57;10.90;;;;;;;;;;5047559;28;20119;-60
2022/08/27 02:56:28;;;;;;;13.80;9.93;;;;;;;;;;5048595;28;20045;-60
2022/08/27 02:58:54;;;;;;;17.40;10.73;;;;;;;;;;5048192;28;20419;-61
2022/08/27 03:01:21;;;;;;;19.60;11.13;;;;;;;;;;5048551;28;20068;-60
2022/08/27 03:03:47;;;;;;;16.70;11.40;;;;;;;;;;5047902;28;20458;-61
2022/08/27 03:06:13;;;;;;;21.33;11.40;;;;;;;;;;5047882;28;20502;-61
2022/08/27 03:08:39;;;;;;;20.07;11.57;;;;;;;;;;5047915;28;20197;-60
2022/08/27 03:11:08;;;;;;;19.37;11.70;;;;;;;;;;5047441;28;20084;-60
2022/08/27 03:13:37;;;;;;;22.70;13.13;;;;;;;;;;5047190;28;20190;-61
2022/08/27 03:16:04;;;;;;;16.20;11.73;;;;;;;;;;5045701;28;20515;-60
2022/08/27 03:18:31;;;;;;;18.00;12.97;;;;;;;;;;5048783;28;20057;-61
2022/08/27 03:20:58;;;;;;;21.07;12.07;;;;;;;;;;5046792;28;20057;-60
2022/08/27 03:23:25;;;;;;;23.40;13.33;;;;;;;;;;5047025;28;20166;-60
2022/08/27 03:25:54;;;;;;;19.23;12.33;;;;;;;;;;5047454;28;20094;-60
2022/08/27 03:28:24;;;;;;;21.27;12.80;;;;;;;;;;5047368;28;20041;-60
2022/08/27 03:30:51;;;;;;;26.80;15.13;;;;;;;;;;5047074;28;20136;-60
2022/08/27 03:33:18;;;;;;;19.43;11.83;;;;;;;;;;5047797;28;20052;-60
2022/08/27 03:35:45;;;;;;;20.67;12.70;;;;;;;;;;5045834;28;20052;-61
2022/08/27 03:38:11;;;;;;;23.77;13.53;;;;;;;;;;5048112;28;20045;-60
2022/08/27 03:40:37;;;;;;;24.37;12.70;;;;;;;;;;5046334;28;20045;-60
2022/08/27 03:43:03;;;;;;;19.23;12.37;;;;;;;;;;5047104;28;20057;-61
2022/08/27 03:45:29;;;;;;;18.33;11.23;;;;;;;;;;5045674;28;20049;-61
2022/08/27 03:47:55;;;;;;;21.97;12.67;;;;;;;;;;5047476;28;20049;-61
2022/08/27 03:50:22;;;;;;;18.47;11.53;;;;;;;;;;5046434;28;20404;-61
2022/08/27 03:52:48;;;;;;;19.83;11.60;;;;;;;;;;5047349;28;20045;-60
2022/08/27 03:55:14;;;;;;;25.03;12.77;;;;;;;;;;5046582;28;20115;-60
2022/08/27 03:57:41;;;;;;;17.33;11.97;;;;;;;;;;5046725;28;20128;-61
2022/08/27 04:00:16;;;;;;;20.63;13.13;;;;;;;;;;5046347;28;20060;-60
2022/08/27 04:02:43;;;;;;;16.87;10.93;;;;;;;;;;5046980;28;20458;-60
2022/08/27 04:05:11;;;;;;;27.87;11.50;;;;;;;;;;5047750;28;20045;-60
2022/08/27 04:07:37;;;;;;;19.70;12.63;;;;;;;;;;5045109;28;20102;-60
2022/08/27 04:10:04;;;;;;;22.93;11.77;;;;;;;;;;5046465;28;20085;-60
2022/08/27 04:12:30;;;;;;;20.27;12.70;;;;;;;;;;5047271;28;20037;-60
2022/08/27 04:14:56;;;;;;;22.37;12.27;;;;;;;;;;5046560;28;20127;-60
2022/08/27 04:17:23;;;;;;;19.97;11.80;;;;;;;;;;5047665;28;20090;-60
2022/08/27 04:19:51;;;;;;;18.67;11.93;;;;;;;;;;5045233;28;20142;-60
2022/08/27 04:22:17;;;;;;;19.43;11.37;;;;;;;;;;5046606;28;20511;-60
2022/08/27 04:24:43;;;;;;;20.90;11.20;;;;;;;;;;5051054;28;20052;-61
2022/08/27 04:27:10;;;;;;;19.53;10.77;;;;;;;;;;5049458;28;20049;-60
2022/08/27 04:29:36;;;;;;;19.80;10.53;;;;;;;;;;5050877;28;20053;-61
2022/08/27 04:32:02;;;;;;;20.07;11.03;;;;;;;;;;5050225;28;20049;-61
2022/08/27 04:34:28;;;;;;;19.40;12.27;;;;;;;;;;5048634;28;20114;-60
2022/08/27 04:36:56;;;;;;;21.93;12.57;;;;;;;;;;5049596;28;20465;-60
2022/08/27 04:39:22;;;;;;;17.93;9.97;;;;;;;;;;5050431;28;20045;-60
2022/08/27 04:41:49;;;;;;;25.10;15.47;;;;;;;;;;5050034;28;20052;-60
2022/08/27 04:44:15;;;;;;;20.20;11.90;;;;;;;;;;5051057;28;20499;-60
2022/08/27 04:46:42;;;;;;;24.87;13.33;;;;;;;;;;5050262;28;20709;-61
2022/08/27 04:49:09;;;;;;;26.93;12.00;;;;;;;;;;5050790;28;20060;-61
2022/08/27 04:51:36;;;;;;;18.40;11.37;;;;;;;;;;5049613;28;20511;-60
2022/08/27 04:54:03;;;;;;;25.83;12.83;;;;;;;;;;5050721;28;20041;-60
2022/08/27 04:56:29;;;;;;;19.77;12.27;;;;;;;;;;5049222;28;20526;-61
2022/08/27 04:58:56;;;;;;;19.00;13.03;;;;;;;;;;5049266;28;20029;-61
2022/08/27 05:01:23;;;;;;;24.10;13.30;;;;;;;;;;5050063;28;20037;-61
2022/08/27 05:03:50;;;;;;;21.67;13.30;;;;;;;;;;5050089;28;20523;-60
2022/08/27 05:06:16;;;;;;;18.27;11.70;;;;;;;;;;5049134;28;20057;-60
2022/08/27 05:08:43;;;;;;;18.50;9.60;;;;;;;;;;5050332;28;20045;-61
2022/08/27 05:11:10;;;;;;;19.93;12.10;;;;;;;;;;5047852;28;20049;-60
2022/08/27 05:13:36;;;;;;;20.13;10.13;;;;;;;;;;5050085;28;20049;-60
2022/08/27 05:16:07;;;;;;;17.50;10.07;;;;;;;;;;5048066;28;20499;-61
2022/08/27 05:18:34;;;;;;;20.00;10.33;;;;;;;;;;5048446;28;20041;-60
2022/08/27 05:21:00;;;;;;;17.50;10.30;;;;;;;;;;5048795;28;20411;-60
2022/08/27 05:23:27;;;;;;;18.70;11.10;;;;;;;;;;5050189;28;20048;-60
2022/08/27 05:25:53;;;;;;;14.07;9.73;;;;;;;;;;5049581;28;20045;-60
2022/08/27 05:28:20;;;;;;;12.53;8.37;;;;;;;;;;5047539;28;20628;-60
2022/08/27 05:30:48;;;;;;;13.20;9.40;;;;;;;;;;5049628;28;20052;-60
2022/08/27 05:33:14;;;;;;;14.47;8.70;;;;;;;;;;5049805;28;20071;-60
2022/08/27 05:35:41;;;;;;;16.47;9.50;;;;;;;;;;5042812;28;20041;-60
2022/08/27 05:38:07;;;;;;;15.13;9.47;;;;;;;;;;5049490;28;20540;-60
2022/08/27 05:40:34;;;;;;;17.10;9.50;;;;;;;;;;5046737;28;20038;-60
2022/08/27 05:43:00;;;;;;;16.10;8.23;;;;;;;;;;5048801;28;20072;-61
2022/08/27 05:45:26;;;;;;;16.80;9.10;;;;;;;;;;5049982;28;20258;-60
2022/08/27 05:47:52;;;;;;;15.30;8.33;;;;;;;;;;5047618;28;20449;-60
2022/08/27 05:50:18;;;;;;;13.80;8.60;;;;;;;;;;5049096;28;20518;-61
2022/08/27 05:52:44;;;;;;;13.13;8.77;;;;;;;;;;5049311;28;20118;-60
2022/08/27 05:55:11;;;;;;;12.37;8.87;;;;;;;;;;5049072;28;20052;-60
2022/08/27 05:57:37;;;;;;;14.57;7.93;;;;;;;;;;5049300;28;20848;-60
2022/08/27 06:02:51;;;;;;;17.30;7.97;;;;;;;;;;5049590;28;20045;-61
2022/08/27 06:05:17;;;;;;;13.57;8.27;;;;;;;;;;5048571;28;20393;-61
2022/08/27 06:07:43;;;;;;;15.50;8.50;;;;;;;;;;5047753;28;20492;-61
2022/08/27 06:10:10;;;;;;;11.50;7.67;;;;;;;;;;5040894;28;20077;-60
2022/08/27 06:12:36;;;;;;;12.67;7.90;;;;;;;;;;5029549;28;20042;-61
2022/08/27 06:15:02;;;;;;;15.73;9.37;;;;;;;;;;5037480;28;20472;-61
2022/08/27 06:17:28;;;;;;;20.57;9.27;;;;;;;;;;5046487;28;20045;-60
2022/08/27 06:19:55;;;;;;;15.07;8.13;;;;;;;;;;5049614;28;20040;-60
2022/08/27 06:22:21;;;;;;;14.63;8.20;;;;;;;;;;5048696;28;20714;-60
2022/08/27 06:24:47;;;;;;;11.53;8.70;;;;;;;;;;5047537;28;20052;-60
2022/08/27 06:27:15;;;;;;;13.33;7.67;;;;;;;;;;5049434;28;20064;-60
2022/08/27 06:29:42;;;;;;;13.13;8.43;;;;;;;;;;5046492;28;20064;-61
2022/08/27 06:32:08;;;;;;;12.90;7.53;;;;;;;;;;5048809;28;20068;-61
2022/08/27 06:34:35;;;;;;;11.67;7.20;;;;;;;;;;5047857;28;20106;-61
2022/08/27 06:37:01;;;;;;;17.67;6.67;;;;;;;;;;5048696;28;20133;-61
2022/08/27 06:39:27;;;;;;;14.33;6.93;;;;;;;;;;5049118;28;20041;-61
2022/08/27 06:41:53;;;;;;;13.10;6.40;;;;;;;;;;5047925;28;20564;-61
2022/08/27 06:44:20;;;;;;;10.17;5.13;;;;;;;;;;5048574;28;20418;-60
2022/08/27 06:46:47;;;;;;;11.17;5.60;;;;;;;;;;5047385;28;20067;-61
2022/08/27 06:49:13;;;;;;;10.20;6.10;;;;;;;;;;5045453;28;20049;-61
2022/08/27 06:51:39;;;;;;;10.50;5.97;;;;;;;;;;5047908;28;20045;-61
2022/08/27 06:54:08;;;;;;;11.03;5.60;;;;;;;;;;5047438;28;20045;-60
2022/08/27 06:56:34;;;;;;;10.27;4.93;;;;;;;;;;5048801;28;20110;-60
2022/08/27 06:59:01;;;;;;;8.40;4.90;;;;;;;;;;5047904;28;20080;-61
2022/08/27 07:01:29;;;;;;;7.50;4.20;;;;;;;;;;5048748;28;20067;-61
2022/08/27 07:03:57;;;;;;;7.37;4.47;;;;;;;;;;5045705;28;20041;-61
2022/08/27 07:06:23;;;;;;;9.83;4.47;;;;;;;;;;5028194;28;20507;-61
2022/08/27 07:08:49;;;;;;;8.83;3.83;;;;;;;;;;5047980;28;20133;-61
2022/08/27 07:11:16;;;;;;;6.30;3.23;;;;;;;;;;5047443;28;20060;-61
2022/08/27 07:13:42;;;;;;;11.10;3.17;;;;;;;;;;5048291;28;20055;-61
2022/08/27 07:16:10;;;;;;;7.10;3.20;;;;;;;;;;5047603;28;20052;-61
2022/08/27 07:18:37;;;;;;;10.47;3.40;;;;;;;;;;5046219;28;20426;-61
2022/08/27 07:21:03;;;;;;;6.27;2.70;;;;;;;;;;5045747;28;20613;-61
2022/08/27 07:23:31;;;;;;;7.30;2.50;;;;;;;;;;5048178;28;20041;-61
2022/08/27 07:25:57;;;;;;;6.87;2.40;;;;;;;;;;5047543;28;20051;-61
2022/08/27 07:28:24;;;;;;;11.63;3.10;;;;;;;;;;5045945;28;20388;-61
2022/08/27 07:30:50;;;;;;;7.03;2.30;;;;;;;;;;5047997;28;20064;-61
2022/08/27 07:33:16;;;;;;;10.83;2.47;;;;;;;;;;5046038;28;20060;-61
2022/08/27 07:35:43;;;;;;;8.37;2.70;;;;;;;;;;5047137;28;20041;-61
2022/08/27 07:38:12;;;;;;;6.57;2.13;;;;;;;;;;5047932;28;20157;-61
2022/08/27 07:40:38;;;;;;;7.83;2.30;;;;;;;;;;5047963;28;20041;-61
2022/08/27 07:45:54;;;;;;;5.97;1.87;;;;;;;;;;5046415;28;20041;-60
2022/08/27 07:48:20;;;;;;;5.83;1.87;;;;;;;;;;5047632;28;20060;-61
2022/08/27 07:50:46;;;;;;;9.13;3.40;;;;;;;;;;5047599;28;20398;-61
2022/08/27 07:53:12;;;;;;;8.63;1.87;;;;;;;;;;5047569;28;20045;-61
2022/08/27 07:55:38;;;;;;;6.60;1.60;;;;;;;;;;5047426;28;20103;-61
2022/08/27 07:58:05;;;;;;;10.47;2.83;;;;;;;;;;5049910;28;20045;-61
2022/08/27 08:00:31;;;;;;;7.77;1.50;;;;;;;;;;5048189;28;20044;-61
2022/08/27 08:02:58;;;;;;;5.90;1.77;;;;;;;;;;5050595;28;20406;-61
2022/08/27 08:05:24;;;;;;;6.60;1.70;;;;;;;;;;5051605;28;20558;-61
2022/08/27 08:07:50;;;;;;;3.40;1.07;;;;;;;;;;5050685;28;20063;-61
2022/08/27 08:10:19;;;;;;;8.60;2.00;;;;;;;;;;5034404;28;20056;-61
2022/08/27 08:12:45;;;;;;;5.73;1.47;;;;;;;;;;5044819;28;20056;-61
2022/08/27 08:15:11;;;;;;;3.80;1.20;;;;;;;;;;5051046;28;20056;-61
2022/08/27 08:17:38;;;;;;;3.80;1.50;;;;;;;;;;5048453;28;20049;-61
2022/08/27 08:20:05;;;;;;;6.27;1.30;;;;;;;;;;5051678;28;20107;-62
2022/08/27 08:22:31;;;;;;;5.00;1.03;;;;;;;;;;5052469;28;20051;-61
2022/08/27 08:24:57;;;;;;;6.33;1.40;;;;;;;;;;5051824;28;20122;-61
2022/08/27 08:27:23;;;;;;;5.07;1.17;;;;;;;;;;5050165;28;20056;-61
2022/08/27 08:29:50;;;;;;;5.43;1.40;;;;;;;;;;5041085;28;20057;-61
2022/08/27 08:32:16;;;;;;;7.20;1.60;;;;;;;;;;5047658;28;20045;-61
2022/08/27 08:34:42;;;;;;;4.87;1.40;;;;;;;;;;5050971;28;20045;-61
2022/08/27 08:37:09;;;;;;;6.87;1.60;;;;;;;;;;5051551;28;20073;-61
2022/08/27 08:39:36;;;;;;;8.53;1.63;;;;;;;;;;5049900;28;20068;-61
2022/08/27 08:42:04;;;;;;;7.07;1.97;;;;;;;;;;5052189;28;20167;-61
2022/08/27 08:44:36;;;;;;;5.40;1.40;;;;;;;;;;5051475;28;20055;-59
2022/08/27 08:47:13;;;;;;;9.43;2.05;;;;;;;;;;5050014;28;20080;-61
2022/08/27 08:49:46;;;;;;;9.63;1.33;;;;;;;;;;5051251;28;20041;-61
2022/08/27 08:52:12;;;;;;;;;;;;;;;;;;5052221;28;20060;-61
2022/08/27 08:54:38;;;;;;;7.13;1.60;;;;;;;;;;5050524;28;19921;-59
2022/08/27 08:57:11;;;;;;;7.60;1.80;;;;;;;;;;5052131;28;20053;-59
2022/08/27 08:59:39;;;;;;;9.67;1.80;;;;;;;;;;5050661;28;20048;-59
2022/08/27 09:02:09;;;;;;;7.83;1.63;;;;;;;;;;5051721;28;20507;-59
2022/08/27 09:04:36;;;;;;;4.83;1.20;;;;;;;;;;5049354;28;20041;-59
2022/08/27 09:07:02;;;;;;;5.17;1.77;;;;;;;;;;5045452;28;20075;-62
2022/08/27 09:09:36;;;;;;;6.23;1.73;;;;;;;;;;5031428;28;20175;-62
2022/08/27 09:12:14;;;;;;;4.78;1.17;;;;;;;;;;5040524;28;20041;-62
2022/08/27 09:14:42;;;;;;;3.08;1.25;;;;;;;;;;5049412;28;20045;-62
2022/08/27 09:17:09;;;;;;;5.63;1.50;;;;;;;;;;5051085;28;20111;-62
2022/08/27 09:19:35;;;;;;;5.40;1.50;;;;;;;;;;5050778;28;20131;-61
2022/08/27 09:22:07;;;;;;;8.60;2.13;;;;;;;;;;5050025;28;20084;-62
2022/08/27 09:24:33;;;;;;;5.90;1.50;;;;;;;;;;5051004;28;20056;-59
2022/08/27 09:26:59;;;;;;;6.97;1.70;;;;;;;;;;5050848;28;20045;-59
2022/08/27 09:29:26;;;;;;;7.38;1.35;;;;;;;;;;5051107;28;20518;-60
2022/08/27 09:32:07;;;;;;;6.28;1.33;;;;;;;;;;5038107;28;20563;-60
2022/08/27 09:34:35;;;;;;;6.07;1.45;;;;;;;;;;5031323;28;20049;-60
2022/08/27 09:37:09;;;;;;;6.78;1.38;;;;;;;;;;5049839;28;20430;-60
2022/08/27 09:39:43;;;;;;;5.15;1.35;;;;;;;;;;5049578;28;20087;-60
2022/08/27 09:42:21;;;;;;;4.97;1.30;;;;;;;;;;5050547;28;20449;-59
2022/08/27 09:44:47;;;;;;;6.22;1.80;;;;;;;;;;5048723;28;20056;-59
2022/08/27 09:47:14;;;;;;;5.80;1.47;;;;;;;;;;5050489;28;20041;-60
2022/08/27 09:49:41;;;;;;;5.25;1.38;;;;;;;;;;5050627;28;20125;-60
2022/08/27 09:52:07;;;;;;;6.40;1.40;;;;;;;;;;5050339;28;20128;-60
2022/08/27 09:54:42;;;;;;;4.72;1.85;;;;;;;;;;5050853;28;20048;-60
2022/08/27 09:57:08;;;;;;;8.95;1.30;;;;;;;;;;5049683;28;20422;-60
2022/08/27 09:59:36;;;;;;;6.85;1.50;;;;;;;;;;5049461;28;20443;-60
2022/08/27 10:02:02;;;;;;;6.32;1.50;;;;;;;;;;5047454;28;20043;-60
2022/08/27 10:04:36;;;;;;;5.10;1.13;;;;;;;;;;5049900;28;20041;-60
2022/08/27 10:07:17;;;;;;;4.95;1.42;;;;;;;;;;5050220;28;20120;-59
2022/08/27 10:09:48;;;;;;;6.13;1.30;;;;;;;;;;5050110;28;20049;-60
2022/08/27 10:12:18;;;;;;;7.50;1.58;;;;;;;;;;5046115;28;20049;-60
2022/08/27 10:14:47;;;;;;;5.85;1.58;;;;;;;;;;5048766;28;20506;-60
2022/08/27 10:17:16;;;;;;;6.72;1.20;;;;;;;;;;5050493;28;20103;-60
2022/08/27 10:19:56;;;;;;;6.38;1.75;;;;;;;;;;5048871;28;20056;-60
2022/08/27 10:22:34;;;;;;;5.53;1.60;;;;;;;;;;5048293;28;20045;-60
2022/08/27 10:25:21;;;;;;;3.83;1.50;;;;;;;;;;5050107;28;20419;-60
2022/08/27 10:28:06;;;;;;;5.72;1.60;;;;;;;;;;5042461;28;20049;-60
2022/08/27 10:30:47;;;;;;;6.28;1.63;;;;;;;;;;5049774;28;20064;-60
2022/08/27 10:33:20;;;;;;;5.53;1.40;;;;;;;;;;5048533;28;20137;-60
2022/08/27 10:35:46;;;;;;;;;;;;;;;;;;5050281;28;20570;-60
2022/08/27 10:38:23;;;;;;;12.50;1.77;;;;;;;;;;5048413;28;20085;-60
2022/08/27 10:40:55;;;;;;;5.55;1.25;;;;;;;;;;5049482;28;20041;-60
2022/08/27 10:43:40;;;;;;;5.72;1.27;;;;;;;;;;5048551;28;20493;-60
2022/08/27 10:46:06;;;;;;;5.95;2.05;;;;;;;;;;5047134;28;20048;-60
2022/08/27 10:48:38;;;;;;;6.28;1.65;;;;;;;;;;5048367;28;20541;-60
2022/08/27 10:51:07;;;;;;;4.22;1.30;;;;;;;;;;5037142;28;20046;-62
2022/08/27 10:53:36;;;;;;;9.20;1.63;;;;;;;;;;5046676;28;20158;-62
2022/08/27 10:56:08;;;;;;;6.75;1.95;;;;;;;;;;5050179;28;20484;-60
2022/08/27 10:58:43;;;;;;;6.05;1.40;;;;;;;;;;5048492;28;20423;-60
2022/08/27 11:01:16;;;;;;;6.05;1.27;;;;;;;;;;5039019;28;20458;-60
2022/08/27 11:03:55;;;;;;;6.68;1.30;;;;;;;;;;5043130;28;20060;-60
2022/08/27 11:06:42;;;;;;;7.35;1.40;;;;;;;;;;5049538;28;20037;-61
2022/08/27 11:09:08;;;;;;;8.02;1.45;;;;;;;;;;5050126;28;20041;-61
2022/08/27 11:11:37;;;;;;;4.30;1.30;;;;;;;;;;5049218;28;20052;-61
2022/08/27 11:14:08;;;;;;;5.63;1.50;;;;;;;;;;5049783;28;20054;-61
2022/08/27 11:16:39;;;;;;;6.90;1.25;;;;;;;;;;5049822;28;20507;-62
2022/08/27 11:19:25;;;;;;;5.55;1.90;;;;;;;;;;5030812;28;20084;-59
2022/08/27 11:22:00;;;;;;;6.55;1.23;;;;;;;;;;5036160;28;20044;-60
2022/08/27 11:24:31;;;;;;;9.10;1.70;;;;;;;;;;5047852;28;20059;-59
2022/08/27 11:27:01;;;;;;;4.53;1.17;;;;;;;;;;5049297;28;20127;-59
2022/08/27 11:29:27;;;;;;;4.97;1.75;;;;;;;;;;5049169;28;20045;-60
2022/08/27 11:31:59;;;;;;;7.38;1.40;;;;;;;;;;5051067;28;20114;-60
2022/08/27 11:34:40;;;;;;;5.78;1.98;;;;;;;;;;5053069;28;20557;-60
2022/08/27 11:37:16;;;;;;;7.40;1.45;;;;;;;;;;5053262;28;20055;-60
2022/08/27 11:39:48;;;;;;;7.40;1.80;;;;;;;;;;5053471;28;20190;-59
2022/08/27 11:42:20;;;;;;;6.32;1.50;;;;;;;;;;5037264;28;20056;-60
2022/08/27 11:44:48;;;;;;;6.03;1.30;;;;;;;;;;5051933;28;20379;-60
2022/08/27 11:47:14;;;;;;;3.58;1.27;;;;;;;;;;5053682;28;20126;-60
2022/08/27 11:49:48;;;;;;;6.10;1.67;;;;;;;;;;5053502;28;20084;-60
2022/08/27 11:52:40;;;;;;;9.18;1.75;;;;;;;;;;5053460;28;20079;-60
2022/08/27 11:55:15;;;;;;;5.53;1.23;;;;;;;;;;5051852;28;20056;-60
2022/08/27 11:57:42;;;;;;;5.40;1.20;;;;;;;;;;5032673;28;20121;-60
2022/08/27 12:00:26;;;;;;;4.78;1.23;;;;;;;;;;5033105;28;20060;-60
2022/08/27 12:02:57;;;;;;;4.82;1.20;;;;;;;;;;5033168;28;20107;-61
2022/08/27 12:05:32;;;;;;;3.55;1.50;;;;;;;;;;5032830;28;20124;-60
2022/08/27 12:07:58;;;;;;;4.75;1.30;;;;;;;;;;5032516;28;20504;-60
2022/08/27 12:10:39;;;;;;;5.35;1.60;;;;;;;;;;5032710;28;20049;-60
2022/08/27 12:13:09;;;;;;;5.30;1.92;;;;;;;;;;5034743;28;20075;-60
2022/08/27 12:15:44;;;;;;;4.72;1.30;;;;;;;;;;5049911;28;20047;-60
2022/08/27 12:18:19;;;;;;;5.47;1.90;;;;;;;;;;5052685;28;20053;-60
2022/08/27 12:20:57;;;;;;;3.67;1.50;;;;;;;;;;5037973;28;20046;-61
2022/08/27 12:23:41;;;;;;;6.45;1.50;;;;;;;;;;5042501;28;20049;-60
2022/08/27 12:26:25;;;;;;;3.00;1.42;;;;;;;;;;5051623;28;20103;-60
2022/08/27 12:29:15;;;;;;;6.75;1.55;;;;;;;;;;5048285;28;20504;-60
2022/08/27 12:31:43;;;;;;;4.97;1.23;;;;;;;;;;5033626;28;20053;-60
2022/08/27 12:34:14;;;;;;;3.35;1.05;;;;;;;;;;5052160;28;20057;-60
2022/08/27 12:36:41;;;;;;;12.95;1.67;;;;;;;;;;5050573;28;20469;-60
2022/08/27 12:39:11;;;;;;;6.13;1.70;;;;;;;;;;5041137;28;20042;-60
2022/08/27 12:41:43;;;;;;;6.15;1.40;;;;;;;;;;5031458;28;20042;-60
2022/08/27 12:44:12;;;;;;;7.68;1.65;;;;;;;;;;5040912;28;20045;-61
2022/08/27 12:46:44;;;;;;;5.43;1.52;;;;;;;;;;5051431;28;20045;-60
2022/08/27 12:49:10;;;;;;;4.32;1.52;;;;;;;;;;5051897;28;20045;-61
2022/08/27 12:51:36;;;;;;;5.22;1.67;;;;;;;;;;5051233;28;20045;-61
2022/08/27 12:54:21;;;;;;;6.40;1.60;;;;;;;;;;5051829;28;20076;-60
2022/08/27 12:56:58;;;;;;;2.80;1.10;;;;;;;;;;5051429;28;20051;-61
2022/08/27 12:59:24;;;;;;;8.27;1.45;;;;;;;;;;5051850;28;20124;-61
2022/08/27 13:02:02;;;;;;;4.80;1.20;;;;;;;;;;5052057;28;20131;-62
2022/08/27 13:04:30;;;;;;;3.92;1.55;;;;;;;;;;5051832;28;20081;-62
2022/08/27 13:06:57;;;;;;;8.00;1.50;;;;;;;;;;5050662;28;20064;-62
2022/08/27 13:09:41;;;;;;;7.22;1.40;;;;;;;;;;5051609;28;20045;-61
2022/08/27 13:12:15;;;;;;;6.63;1.35;;;;;;;;;;5051862;28;20083;-61
2022/08/27 13:14:41;;;;;;;5.93;1.80;;;;;;;;;;5051031;28;20049;-62
2022/08/27 13:17:09;;;;;;;5.35;1.45;;;;;;;;;;5050551;28;20048;-62
2022/08/27 13:19:51;;;;;;;4.30;1.05;;;;;;;;;;5051564;28;20494;-61
2022/08/27 13:22:37;;;;;;;6.95;1.25;;;;;;;;;;5051359;28;20041;-61
2022/08/27 13:25:03;;;;;;;3.42;1.30;;;;;;;;;;5051367;28;20522;-62
2022/08/27 13:27:31;;;;;;;5.38;1.17;;;;;;;;;;5050901;28;20072;-59
2022/08/27 13:30:00;;;;;;;7.15;1.40;;;;;;;;;;5051142;28;20052;-60
2022/08/27 13:32:27;;;;;;;7.07;1.67;;;;;;;;;;5050908;28;20511;-60
2022/08/27 13:34:53;;;;;;;4.70;1.30;;;;;;;;;;5051198;28;20414;-60
2022/08/27 13:37:34;;;;;;;6.22;1.33;;;;;;;;;;5051444;28;20045;-60
2022/08/27 13:40:00;;;;;;;5.75;1.60;;;;;;;;;;5051046;28;20541;-60
2022/08/27 13:42:26;;;;;;;5.35;1.80;;;;;;;;;;5050724;28;20654;-60
2022/08/27 13:44:55;;;;;;;5.10;1.65;;;;;;;;;;5050733;28;20043;-60
2022/08/27 13:47:24;;;;;;;4.88;1.10;;;;;;;;;;5050621;28;20048;-60
2022/08/27 13:49:51;;;;;;;2.15;0.80;;;;;;;;;;5050506;28;20037;-60
2022/08/27 13:54:11;;;;;;;4.10;1.27;;;;;;;;;;5051131;28;20041;-60
2022/08/27 13:55:22;;;;;;;4.60;1.23;;;;;;;;;;5050544;28;20073;-60
2022/08/27 13:57:50;;;;;;;3.67;1.10;;;;;;;;;;5050414;28;20084;-60
2022/08/27 14:00:20;;;;;;;4.95;1.50;;;;;;;;;;5050791;28;20114;-60
2022/08/27 14:02:46;;;;;;;4.68;1.30;;;;;;;;;;5050615;28;20182;-60
2022/08/27 14:05:14;;;;;;;6.43;1.13;;;;;;;;;;5050448;28;20052;-60
2022/08/27 14:07:46;;;;;;;2.42;0.98;;;;;;;;;;5050271;28;20413;-60
2022/08/27 14:10:18;;;;;;;4.28;1.27;;;;;;;;;;5050672;28;20486;-60
2022/08/27 14:12:46;;;;;;;5.05;1.50;;;;;;;;;;5050147;28;20052;-60
2022/08/27 14:15:12;;;;;;;3.72;1.05;;;;;;;;;;5049775;28;20048;-61
2022/08/27 14:17:38;;;;;;;4.40;0.93;;;;;;;;;;5050154;28;20051;-60
2022/08/27 14:20:05;;;;;;;4.88;1.17;;;;;;;;;;5050074;28;20156;-61
2022/08/27 14:22:33;;;;;;;5.68;1.40;;;;;;;;;;5050175;28;20518;-61
2022/08/27 14:24:59;;;;;;;5.82;1.35;;;;;;;;;;5050061;28;20049;-61
2022/08/27 14:27:25;;;;;;;5.60;1.10;;;;;;;;;;5049601;28;20559;-60
2022/08/27 14:29:51;;;;;;;5.60;1.35;;;;;;;;;;5049905;28;20450;-61
2022/08/27 14:32:18;;;;;;;5.20;1.00;;;;;;;;;;5050033;28;20486;-61
2022/08/27 14:34:45;;;;;;;3.65;1.38;;;;;;;;;;5050251;28;20078;-60
2022/08/27 14:37:11;;;;;;;4.18;1.30;;;;;;;;;;5050106;28;20090;-61
2022/08/27 14:39:38;;;;;;;6.72;1.40;;;;;;;;;;5049530;28;20510;-60
2022/08/27 14:42:04;;;;;;;3.10;0.85;;;;;;;;;;5050151;28;20513;-61
2022/08/27 14:44:30;;;;;;;3.95;1.27;;;;;;;;;;5049624;28;20048;-60
2022/08/27 14:46:58;;;;;;;3.45;0.90;;;;;;;;;;5048952;28;20053;-60
2022/08/27 14:49:30;;;;;;;5.55;1.05;;;;;;;;;;5050105;28;20049;-60
2022/08/27 14:51:56;;;;;;;4.65;1.15;;;;;;;;;;5049756;28;20135;-60